Time;durP1;ratioP1;P1;durP2;ratioP2;P2;SDS_P1;SDS_P2;PMS_P1;PMS_P2;Temp;Humidity;BMP_temperature;BMP_pressure;BME280_temperature;BME280_humidity;BME280_pressure;Samples;Min_cycle;Max_cycle;Signal;HPM_P1;HPM_P2
2020/12/08 00:00:09;;;;;;;6.30;4.18;;;;;;;20.22;37.03;98407.75;4995274;28;20410;-75
2020/12/08 00:02:34;;;;;;;6.75;3.72;;;;;;;20.23;36.68;98414.72;4993434;28;20084;-73
2020/12/08 00:05:00;;;;;;;5.63;4.20;;;;;;;20.22;36.72;98410.41;4993417;28;20034;-73
2020/12/08 00:07:25;;;;;;;4.57;3.78;;;;;;;20.21;36.65;98420.09;4993495;28;20404;-72
2020/12/08 00:09:51;;;;;;;4.97;3.70;;;;;;;20.21;36.71;98417.44;4993577;28;20042;-74
2020/12/08 00:12:16;;;;;;;5.63;4.10;;;;;;;20.21;36.77;98424.47;5008660;28;20039;-72
2020/12/08 00:14:41;;;;;;;6.22;4.05;;;;;;;20.19;36.66;98421.94;4993618;28;20453;-73
2020/12/08 00:17:07;;;;;;;4.43;3.47;;;;;;;20.20;36.77;98420.13;4993308;28;20049;-75
2020/12/08 00:19:32;;;;;;;5.00;3.78;;;;;;;20.19;36.63;98421.94;4993351;28;20034;-73
2020/12/08 00:21:58;;;;;;;4.57;3.85;;;;;;;20.18;36.70;98411.47;4993472;28;20169;-75
2020/12/08 00:24:24;;;;;;;5.40;4.00;;;;;;;20.18;36.68;98411.47;4993735;28;20040;-73
2020/12/08 00:26:49;;;;;;;5.57;4.38;;;;;;;20.17;36.56;98408.00;4993202;28;20057;-72
2020/12/08 00:29:17;;;;;;;4.78;3.38;;;;;;;20.15;36.69;98404.59;4993424;28;20038;-76
2020/12/08 00:31:43;;;;;;;6.05;3.83;;;;;;;20.15;36.74;98409.84;4992608;28;20046;-73
2020/12/08 00:34:09;;;;;;;7.18;4.80;;;;;;;20.16;36.60;98408.09;4993242;28;20540;-74
2020/12/08 00:36:34;;;;;;;5.70;4.35;;;;;;;20.17;36.75;98410.63;4997733;28;20041;-73
2020/12/08 00:38:59;;;;;;;5.15;3.92;;;;;;;20.15;36.55;98412.47;5012669;28;20046;-75
2020/12/08 00:41:25;;;;;;;5.15;3.83;;;;;;;20.19;36.52;98421.94;5012621;28;20042;-74
2020/12/08 00:43:51;;;;;;;8.40;4.68;;;;;;;20.16;36.54;98414.19;5012557;28;20049;-74
2020/12/08 00:46:19;;;;;;;6.85;4.60;;;;;;;20.14;36.67;98402.88;5011019;28;20037;-73
2020/12/08 00:48:45;;;;;;;5.20;4.40;;;;;;;20.17;36.49;98405.38;5012528;28;20064;-76
2020/12/08 00:51:11;;;;;;;5.45;4.13;;;;;;;20.14;36.59;98410.78;4997220;28;20052;-75
2020/12/08 00:53:36;;;;;;;6.43;5.22;;;;;;;20.15;36.46;98398.50;4992822;28;20475;-76
2020/12/08 00:56:08;;;;;;;5.88;4.22;;;;;;;20.13;36.73;98401.19;4992951;28;20384;-73
2020/12/08 00:58:33;;;;;;;6.72;4.72;;;;;;;20.13;36.53;98405.59;5000813;28;20035;-72
2020/12/08 01:00:59;;;;;;;6.25;4.18;;;;;;;20.15;36.60;98404.59;4992464;28;20089;-76
2020/12/08 01:03:24;;;;;;;5.75;3.90;;;;;;;20.13;36.61;98398.56;4992493;28;20030;-72
2020/12/08 01:05:49;;;;;;;6.45;5.38;;;;;;;20.12;36.60;98401.28;4992610;28;20096;-74
2020/12/08 01:08:15;;;;;;;6.45;4.57;;;;;;;20.09;36.51;98399.63;4992533;28;20038;-75
2020/12/08 01:10:40;;;;;;;6.70;5.13;;;;;;;20.12;36.54;98403.91;4992230;28;20096;-73
2020/12/08 01:13:05;;;;;;;5.65;4.60;;;;;;;20.12;36.40;98407.38;4991819;28;20057;-72
2020/12/08 01:15:31;;;;;;;6.45;5.00;;;;;;;20.10;36.45;98403.97;4992788;28;20038;-75
2020/12/08 01:17:56;;;;;;;6.80;4.90;;;;;;;20.09;36.39;98399.63;4992324;28;20039;-75
2020/12/08 01:20:22;;;;;;;6.43;4.88;;;;;;;20.10;36.34;98405.75;4992298;28;20688;-73
2020/12/08 01:22:47;;;;;;;7.43;5.40;;;;;;;20.10;36.38;98400.50;5007287;28;20457;-73
2020/12/08 01:25:13;;;;;;;7.72;5.15;;;;;;;20.08;36.59;98406.69;4991022;28;20479;-73
2020/12/08 01:27:38;;;;;;;6.95;4.90;;;;;;;20.07;36.51;98407.59;4992275;28;20028;-73
2020/12/08 01:30:05;;;;;;;6.68;4.90;;;;;;;20.11;36.30;98415.34;4990214;28;20030;-77
2020/12/08 01:32:30;;;;;;;5.30;4.18;;;;;;;20.10;36.29;98411.00;4992319;28;20088;-75
2020/12/08 01:34:56;;;;;;;6.93;4.85;;;;;;;20.10;36.38;98398.69;4991158;28;20105;-75
2020/12/08 01:37:21;;;;;;;7.22;4.88;;;;;;;20.08;36.19;98401.41;5020641;28;20033;-77
2020/12/08 01:39:46;;;;;;;7.07;5.07;;;;;;;20.09;36.32;98402.25;5030726;28;20033;-75
2020/12/08 01:42:12;;;;;;;6.85;4.70;;;;;;;20.10;36.33;98411.00;5034020;28;20461;-73
2020/12/08 01:44:37;;;;;;;7.28;4.50;;;;;;;20.07;36.17;98404.97;5030932;28;20559;-75
2020/12/08 01:47:03;;;;;;;5.93;4.40;;;;;;;20.06;36.28;98402.44;5031294;28;20065;-73
2020/12/08 01:49:29;;;;;;;6.20;4.88;;;;;;;20.05;36.24;98400.72;5029464;28;20030;-73
2020/12/08 01:51:55;;;;;;;6.93;4.70;;;;;;;20.04;35.99;98402.47;5011263;28;20585;-72
2020/12/08 01:54:21;;;;;;;8.15;4.88;;;;;;;20.03;36.35;98400.78;5011084;28;20029;-72
2020/12/08 01:56:46;;;;;;;5.47;4.63;;;;;;;20.05;36.11;98414.72;5011267;28;20038;-72
2020/12/08 01:59:12;;;;;;;7.25;4.80;;;;;;;20.07;36.17;98410.22;5002821;28;20349;-75
2020/12/08 02:01:37;;;;;;;6.40;4.63;;;;;;;20.06;36.21;98415.56;4991334;28;20118;-72
2020/12/08 02:04:03;;;;;;;6.05;4.90;;;;;;;20.03;36.23;98411.28;4991603;28;20117;-72
2020/12/08 02:06:28;;;;;;;5.90;4.57;;;;;;;20.03;36.12;98413.94;4991293;28;20034;-77
2020/12/08 02:08:54;;;;;;;6.68;4.50;;;;;;;20.05;36.12;98411.25;4991436;28;20030;-74
2020/12/08 02:11:20;;;;;;;5.82;4.50;;;;;;;20.05;36.07;98413.88;4990218;28;20089;-75
2020/12/08 02:13:46;;;;;;;5.55;4.40;;;;;;;20.02;36.06;98422.75;4991407;28;20439;-73
2020/12/08 02:16:12;;;;;;;5.65;4.03;;;;;;;20.03;36.04;98413.94;4991650;28;20506;-72
2020/12/08 02:18:37;;;;;;;6.63;5.05;;;;;;;20.03;36.19;98419.19;4989882;28;20072;-73
2020/12/08 02:21:04;;;;;;;6.15;4.55;;;;;;;20.03;36.10;98421.81;4990884;28;20515;-74
2020/12/08 02:23:30;;;;;;;6.32;4.07;;;;;;;20.03;36.00;98424.44;4990855;28;20030;-72
2020/12/08 02:26:04;;;;;;;6.40;4.45;;;;;;;20.02;36.13;98427.16;5004900;28;20100;-74
2020/12/08 02:28:32;;;;;;;9.73;5.13;;;;;;;20.03;36.15;98428.88;5010688;28;20030;-76
2020/12/08 02:30:57;;;;;;;6.63;4.93;;;;;;;20.01;36.10;98422.81;5002370;28;20034;-74
2020/12/08 02:33:25;;;;;;;7.07;4.80;;;;;;;20.00;35.89;98427.25;4991238;28;20043;-73
2020/12/08 02:35:51;;;;;;;4.60;3.72;;;;;;;20.00;36.05;98424.63;4993981;28;20494;-77
2020/12/08 02:38:17;;;;;;;6.53;4.90;;;;;;;19.99;36.06;98428.16;5029037;28;20408;-75
2020/12/08 02:40:46;;;;;;;6.70;4.88;;;;;;;20.00;35.95;98427.25;5030390;28;20117;-75
2020/12/08 02:43:12;;;;;;;7.25;5.13;;;;;;;20.01;35.97;98428.09;5029835;28;20136;-74
2020/12/08 02:45:38;;;;;;;5.43;4.53;;;;;;;19.99;35.92;98422.03;5030256;28;20038;-72
2020/12/08 02:48:04;;;;;;;5.82;5.03;;;;;;;20.01;35.96;98430.72;5030300;28;20078;-74
2020/12/08 02:50:29;;;;;;;6.18;4.60;;;;;;;19.99;35.89;98424.66;5020596;28;20026;-75
2020/12/08 02:52:55;;;;;;;5.72;4.25;;;;;;;20.01;35.92;98433.34;5010554;28;20030;-77
2020/12/08 02:55:21;;;;;;;8.05;4.43;;;;;;;20.01;35.71;98422.81;5010323;28;20037;-74
2020/12/08 02:57:47;;;;;;;6.45;4.60;;;;;;;20.00;35.72;98422.00;5010123;28;20030;-72
2020/12/08 03:00:13;;;;;;;5.95;4.40;;;;;;;19.98;35.91;98431.72;4993937;28;20022;-73
2020/12/08 03:02:38;;;;;;;5.85;4.10;;;;;;;19.99;35.91;98422.03;4990728;28;20038;-73
2020/12/08 03:05:03;;;;;;;6.03;4.47;;;;;;;19.98;35.78;98420.34;4990498;28;20031;-73
2020/12/08 03:07:29;;;;;;;6.05;4.57;;;;;;;20.00;35.84;98429.00;4990744;28;20038;-73
2020/12/08 03:09:54;;;;;;;5.20;4.20;;;;;;;19.97;35.83;98416.00;4990201;28;20030;-75
2020/12/08 03:12:21;;;;;;;6.57;4.85;;;;;;;19.98;35.79;98412.44;4990247;28;20109;-74
2020/12/08 03:14:46;;;;;;;5.63;4.38;;;;;;;19.97;35.70;98419.50;4990594;28;20085;-72
2020/12/08 03:17:11;;;;;;;5.97;4.25;;;;;;;19.98;35.80;98413.31;4990768;28;20034;-74
2020/12/08 03:19:37;;;;;;;5.70;3.78;;;;;;;19.97;35.79;98418.63;4990291;28;20042;-77
2020/12/08 03:22:04;;;;;;;6.90;4.68;;;;;;;19.96;35.80;98420.44;4990569;28;20478;-73
2020/12/08 03:24:30;;;;;;;6.32;4.50;;;;;;;19.97;35.73;98414.25;4988956;28;20045;-74
2020/12/08 03:26:55;;;;;;;7.18;4.88;;;;;;;19.96;35.84;98420.44;4990483;28;20038;-74
2020/12/08 03:29:21;;;;;;;6.82;4.78;;;;;;;19.97;35.72;98419.50;4990398;28;20513;-73
2020/12/08 03:31:46;;;;;;;6.97;4.78;;;;;;;19.96;35.40;98425.69;4990127;28;20035;-73
2020/12/08 03:34:11;;;;;;;5.93;4.60;;;;;;;19.97;35.70;98421.25;4990421;28;20038;-73
2020/12/08 03:36:37;;;;;;;6.55;4.80;;;;;;;19.95;35.81;98420.47;5009345;28;20029;-75
2020/12/08 03:39:03;;;;;;;6.03;4.72;;;;;;;19.93;35.66;98415.31;5033220;28;20048;-75
2020/12/08 03:41:28;;;;;;;6.68;4.20;;;;;;;19.93;35.74;98416.16;5033998;28;20087;-76
2020/12/08 03:43:56;;;;;;;5.10;4.03;;;;;;;19.94;35.55;98419.66;5033408;28;20098;-74
2020/12/08 03:46:23;;;;;;;6.45;4.80;;;;;;;19.94;35.77;98424.91;5033690;28;20040;-74
2020/12/08 03:48:50;;;;;;;7.53;4.53;;;;;;;19.93;35.50;98433.72;5034451;28;20041;-74
2020/12/08 03:51:17;;;;;;;6.15;4.78;;;;;;;19.94;35.59;98427.53;5017418;28;20046;-75
2020/12/08 03:53:43;;;;;;;10.77;3.97;;;;;;;19.93;35.38;98438.97;5015240;28;20045;-74
2020/12/08 03:56:13;;;;;;;5.43;4.45;;;;;;;19.95;35.49;98428.38;5017010;28;20038;-73
2020/12/08 03:58:39;;;;;;;7.50;5.07;;;;;;;19.96;35.55;98430.06;5008615;28;20041;-73
2020/12/08 04:01:06;;;;;;;6.00;4.70;;;;;;;19.95;35.54;98426.59;4993748;28;20038;-75
2020/12/08 04:03:31;;;;;;;5.93;4.38;;;;;;;19.93;35.49;98423.19;5007103;28;20029;-72
2020/12/08 04:06:04;;;;;;;5.57;4.47;;;;;;;19.92;35.49;98432.00;5033202;28;20164;-73
2020/12/08 04:08:30;;;;;;;6.55;4.18;;;;;;;19.92;35.50;98440.75;5033032;28;20144;-75
2020/12/08 04:10:55;;;;;;;5.88;4.50;;;;;;;19.91;35.33;98440.81;5033220;28;20120;-76
2020/12/08 04:13:21;;;;;;;6.97;4.57;;;;;;;19.92;35.36;98439.91;5018338;28;20050;-75
2020/12/08 04:15:47;;;;;;;6.43;4.63;;;;;;;19.90;35.70;98434.72;4993587;28;20045;-77
2020/12/08 04:18:13;;;;;;;6.88;4.63;;;;;;;19.91;35.40;98438.19;4993562;28;20041;-75
2020/12/08 04:20:45;;;;;;;5.75;4.25;;;;;;;19.90;35.38;98436.47;4993605;28;20402;-72
2020/12/08 04:23:12;;;;;;;5.97;4.60;;;;;;;19.89;35.40;98438.28;4993800;28;20089;-75
2020/12/08 04:25:38;;;;;;;5.40;4.43;;;;;;;19.89;35.43;98432.16;4993370;28;20097;-75
2020/12/08 04:28:04;;;;;;;5.22;4.68;;;;;;;19.88;35.30;98436.56;4993503;28;20061;-73
2020/12/08 04:30:30;;;;;;;6.30;4.85;;;;;;;19.88;35.51;98430.44;4993380;28;20042;-77
2020/12/08 04:32:55;;;;;;;5.28;4.15;;;;;;;19.88;35.58;98430.44;4993738;28;20106;-74
2020/12/08 04:35:21;;;;;;;5.28;4.07;;;;;;;19.87;35.26;98439.25;4993176;28;20073;-75
2020/12/08 04:37:46;;;;;;;6.22;4.35;;;;;;;19.87;35.46;98439.25;5027410;28;20042;-76
2020/12/08 04:40:12;;;;;;;5.53;4.00;;;;;;;19.88;35.11;98433.06;5032506;28;20064;-75
2020/12/08 04:42:47;;;;;;;5.32;4.45;;;;;;;19.86;35.43;98437.50;5032554;28;20044;-72
2020/12/08 04:45:14;;;;;;;5.53;4.35;;;;;;;19.87;35.33;98441.88;5032628;28;20034;-75
2020/12/08 04:47:43;;;;;;;6.05;4.30;;;;;;;19.87;35.65;98437.50;5032300;28;20096;-79
2020/12/08 04:50:11;;;;;;;6.00;4.53;;;;;;;19.87;35.36;98436.63;5025513;28;20121;-74
2020/12/08 04:52:37;;;;;;;6.55;4.78;;;;;;;19.86;35.24;98437.50;5012355;28;20061;-73
2020/12/08 04:55:03;;;;;;;6.05;4.70;;;;;;;19.87;35.29;98448.00;5012500;28;20507;-74
2020/12/08 04:57:28;;;;;;;5.00;4.13;;;;;;;19.83;35.45;98445.56;5012605;28;20494;-74
2020/12/08 05:00:10;;;;;;;6.60;4.93;;;;;;;19.81;35.45;98445.63;4998439;28;20087;-79
2020/12/08 05:02:45;;;;;;;7.68;4.25;;;;;;;19.78;35.40;98444.00;4992537;28;20030;-72
2020/12/08 05:05:11;;;;;;;7.00;4.53;;;;;;;19.78;35.40;98444.00;4993066;28;20114;-73
2020/12/08 05:07:36;;;;;;;7.13;4.88;;;;;;;19.80;35.66;98449.19;4993427;28;20523;-73
2020/12/08 05:10:02;;;;;;;5.82;4.63;;;;;;;19.82;35.29;98446.50;4993532;28;20066;-76
2020/12/08 05:12:27;;;;;;;6.72;4.72;;;;;;;19.81;35.26;98436.91;4992724;28;20042;-75
2020/12/08 05:14:54;;;;;;;6.25;4.63;;;;;;;19.79;35.25;98436.97;4992651;28;20054;-73
2020/12/08 05:17:23;;;;;;;5.65;4.25;;;;;;;19.83;35.53;98440.31;4992962;28;20126;-75
2020/12/08 05:20:13;;;;;;;6.47;4.60;;;;;;;19.82;35.22;98446.50;4991067;28;20443;-75
2020/12/08 05:22:53;;;;;;;6.72;4.72;;;;;;;19.81;35.27;98434.28;4991064;28;20461;-73
2020/12/08 05:25:18;;;;;;;7.13;4.68;;;;;;;19.82;35.33;98442.06;4992601;28;20035;-73
2020/12/08 05:27:45;;;;;;;7.10;5.00;;;;;;;19.81;35.46;98439.53;4992499;28;20061;-72
2020/12/08 05:30:11;;;;;;;6.15;4.70;;;;;;;19.81;35.29;98442.16;4993735;28;20062;-77
2020/12/08 05:32:38;;;;;;;6.53;4.78;;;;;;;19.82;35.17;98443.88;4992684;28;20118;-76
2020/12/08 05:35:11;;;;;;;6.25;4.22;;;;;;;19.83;35.40;98437.69;4992198;28;20104;-73
2020/12/08 05:37:45;;;;;;;6.32;4.45;;;;;;;19.83;35.14;98440.31;5024667;28;20030;-72
2020/12/08 05:40:14;;;;;;;6.60;4.53;;;;;;;19.83;35.22;98441.16;5031514;28;20042;-74
2020/12/08 05:42:41;;;;;;;5.70;4.40;;;;;;;19.83;35.08;98446.41;5031385;28;20053;-79
2020/12/08 05:45:09;;;;;;;6.22;4.20;;;;;;;19.83;35.05;98445.56;5031402;28;20033;-74
2020/12/08 05:47:55;;;;;;;7.05;4.95;;;;;;;19.80;35.22;98443.91;5031521;28;20502;-72
2020/12/08 05:50:23;;;;;;;7.47;4.63;;;;;;;19.83;35.06;98456.91;5022260;28;20030;-75
2020/12/08 05:52:59;;;;;;;5.03;4.22;;;;;;;19.84;35.01;98452.53;5012054;28;20109;-76
2020/12/08 05:55:29;;;;;;;6.10;4.57;;;;;;;19.82;35.14;98454.38;5011503;28;20073;-72
2020/12/08 05:58:06;;;;;;;5.55;4.47;;;;;;;19.80;35.34;98456.22;5005496;28;20499;-79
2020/12/08 06:00:34;;;;;;;7.60;4.47;;;;;;;19.83;34.96;98463.97;5010816;28;20529;-74
2020/12/08 06:03:12;;;;;;;5.93;4.07;;;;;;;19.80;35.04;98459.69;5012203;28;20106;-76
2020/12/08 06:05:41;;;;;;;6.25;4.70;;;;;;;19.81;35.02;98465.81;4991202;28;20458;-76
2020/12/08 06:08:20;;;;;;;5.97;4.53;;;;;;;19.81;35.23;98458.78;4994446;28;20030;-74
2020/12/08 06:10:53;;;;;;;8.88;4.95;;;;;;;19.81;34.90;98457.94;4993213;28;20069;-72
2020/12/08 06:13:30;;;;;;;7.73;4.67;;;;;;;19.80;35.20;98457.06;4991339;28;20506;-73
2020/12/08 06:15:58;;;;;;;5.32;4.40;;;;;;;19.81;34.99;98468.44;4991603;28;20174;-75
2020/12/08 06:18:32;;;;;;;6.00;4.05;;;;;;;19.79;35.08;98465.88;4989841;28;20038;-74
2020/12/08 06:20:58;;;;;;;;;;;;;;;19.76;35.16;98472.13;4991676;28;20049;-74
2020/12/08 06:23:24;;;;;;;6.63;4.50;;;;;;;19.76;35.08;98471.28;4991677;28;20382;-73
2020/12/08 06:25:57;;;;;;;5.80;4.15;;;;;;;19.76;35.02;98472.13;4990261;28;20027;-75
2020/12/08 06:28:23;;;;;;;8.77;5.22;;;;;;;19.82;35.11;98475.41;4991424;28;20126;-75
2020/12/08 06:31:00;;;;;;;7.82;5.20;;;;;;;19.77;35.27;98481.72;4991265;28;20113;-75
2020/12/08 06:33:25;;;;;;;7.88;4.82;;;;;;;19.78;34.95;98483.44;4990898;28;20046;-78
2020/12/08 06:35:58;;;;;;;9.52;5.10;;;;;;;19.80;35.15;98475.47;4975552;28;20027;-73
2020/12/08 06:38:23;;;;;;;9.25;4.95;;;;;;;19.82;34.88;98488.56;5010728;28;20061;-72
2020/12/08 06:40:52;;;;;;;9.48;5.22;;;;;;;19.86;35.04;98495.34;5011038;28;20399;-76
2020/12/08 06:43:18;;;;;;;8.23;5.18;;;;;;;19.90;34.99;98491.69;5010616;28;20038;-74
2020/12/08 06:45:44;;;;;;;8.20;5.45;;;;;;;19.90;35.11;98500.44;4999742;28;20388;-74
2020/12/08 06:48:21;;;;;;;9.18;5.40;;;;;;;19.91;35.01;98507.41;4991041;28;20041;-74
2020/12/08 06:50:48;;;;;;;7.13;4.60;;;;;;;19.92;35.10;98506.47;4991216;28;20091;-72
2020/12/08 06:53:15;;;;;;;8.70;5.25;;;;;;;19.93;35.00;98504.69;4996482;28;20495;-73
2020/12/08 06:55:47;;;;;;;10.15;4.75;;;;;;;19.94;35.23;98514.28;4996793;28;20034;-79
2020/12/08 06:58:12;;;;;;;8.68;5.13;;;;;;;19.98;35.35;98504.47;4993363;28;20038;-75
2020/12/08 07:00:38;;;;;;;179.88;129.20;;;;;;;20.00;35.36;98505.25;5000919;28;20113;-73
2020/12/08 07:03:04;;;;;;;165.98;124.10;;;;;;;20.07;35.33;98506.69;4996305;28;20061;-75
2020/12/08 07:05:34;;;;;;;119.75;92.70;;;;;;;20.09;35.20;98507.44;4990770;28;20027;-78
2020/12/08 07:08:01;;;;;;;93.97;62.58;;;;;;;20.07;35.42;98507.53;4988259;28;20384;-76
2020/12/08 07:10:27;;;;;;;77.18;47.97;;;;;;;20.05;34.90;98503.28;4990277;28;20721;-74
2020/12/08 07:12:53;;;;;;;58.63;40.83;;;;;;;20.02;35.17;98513.94;4995503;28;20124;-72
2020/12/08 07:15:23;;;;;;;58.47;38.60;;;;;;;19.98;35.28;98523.75;5000392;28;20112;-75
2020/12/08 07:17:56;;;;;;;53.55;37.15;;;;;;;19.97;35.24;98524.66;5001539;28;20046;-73
2020/12/08 07:20:23;;;;;;;45.17;31.95;;;;;;;19.97;35.13;98529.06;5009797;28;20041;-75
2020/12/08 07:22:48;;;;;;;46.70;33.97;;;;;;;19.97;35.13;98529.06;5009666;28;20034;-74
2020/12/08 07:25:17;;;;;;;40.65;29.45;;;;;;;19.96;35.25;98530.84;5009991;28;20048;-73
2020/12/08 07:27:46;;;;;;;42.70;29.70;;;;;;;19.97;35.27;98534.31;5009919;28;20046;-76
2020/12/08 07:30:12;;;;;;;41.10;28.92;;;;;;;19.99;35.30;98533.34;5007455;28;20120;-74
2020/12/08 07:32:38;;;;;;;37.55;26.98;;;;;;;19.97;35.13;98531.69;4990099;28;20042;-79
2020/12/08 07:35:05;;;;;;;36.85;27.50;;;;;;;19.94;35.20;98537.94;4990184;28;20031;-75
2020/12/08 07:37:37;;;;;;;35.45;26.00;;;;;;;19.93;35.23;98552.00;5005031;28;20406;-74
2020/12/08 07:40:08;;;;;;;32.63;25.38;;;;;;;19.93;35.34;98552.00;5009919;28;20509;-73
2020/12/08 07:42:35;;;;;;;32.75;24.55;;;;;;;19.92;35.23;98563.44;5009476;28;20481;-74
2020/12/08 07:45:01;;;;;;;31.70;24.58;;;;;;;19.91;35.08;98559.13;5024737;28;20446;-73
2020/12/08 07:47:26;;;;;;;29.20;23.08;;;;;;;19.91;35.37;98562.63;5009560;28;20030;-75
2020/12/08 07:49:52;;;;;;;34.55;20.98;;;;;;;19.97;35.27;98563.22;5005522;28;20035;-73
2020/12/08 07:52:18;;;;;;;30.15;22.02;;;;;;;19.96;35.21;98562.41;4992030;28;20030;-74
2020/12/08 07:54:44;;;;;;;30.70;21.10;;;;;;;19.97;35.17;98564.09;4991981;28;20494;-76
2020/12/08 07:57:09;;;;;;;24.60;18.92;;;;;;;19.95;35.15;98565.94;4992070;28;20046;-75
2020/12/08 07:59:35;;;;;;;28.02;18.92;;;;;;;19.98;35.05;98567.56;5007939;28;20037;-75
2020/12/08 08:02:01;;;;;;;30.10;18.23;;;;;;;19.97;35.07;98573.75;5010995;28;20045;-73
2020/12/08 08:04:27;;;;;;;21.77;17.13;;;;;;;19.97;35.05;98564.09;5011449;28;20042;-76
2020/12/08 08:06:53;;;;;;;26.70;18.95;;;;;;;19.99;34.93;98572.78;5010055;28;20499;-74
2020/12/08 08:09:18;;;;;;;23.85;18.40;;;;;;;19.99;34.86;98571.91;5011289;28;20049;-74
2020/12/08 08:11:44;;;;;;;25.08;19.15;;;;;;;20.01;35.16;98576.16;5009766;28;20042;-75
2020/12/08 08:14:09;;;;;;;29.40;21.35;;;;;;;20.04;34.91;98570.75;5005179;28;20077;-75
2020/12/08 08:16:34;;;;;;;28.00;19.45;;;;;;;20.08;34.84;98571.50;4990374;28;20066;-73
2020/12/08 08:19:01;;;;;;;28.23;19.35;;;;;;;20.13;34.83;98566.84;4990548;28;20039;-75
2020/12/08 08:21:27;;;;;;;26.92;18.85;;;;;;;20.42;34.70;98566.41;4991488;28;20393;-76
2020/12/08 08:23:52;;;;;;;25.85;17.95;;;;;;;20.87;33.79;98562.47;4993511;28;20434;-75
2020/12/08 08:26:18;;;;;;;24.45;16.80;;;;;;;21.07;33.63;98572.00;4993514;28;20039;-73
2020/12/08 08:28:43;;;;;;;22.27;16.92;;;;;;;21.24;33.63;98576.41;4993426;28;20038;-73
2020/12/08 08:31:09;;;;;;;24.92;17.00;;;;;;;21.66;33.01;98571.63;4998025;28;20130;-74
2020/12/08 08:33:35;;;;;;;23.85;16.08;;;;;;;22.39;32.08;98572.13;4997002;28;20049;-73
2020/12/08 08:36:00;;;;;;;24.35;16.35;;;;;;;22.69;31.51;98579.28;5026651;28;20049;-75
2020/12/08 08:38:26;;;;;;;21.52;14.73;;;;;;;22.54;31.87;98584.50;4993069;28;20053;-74
2020/12/08 08:40:53;;;;;;;21.17;15.63;;;;;;;22.14;32.47;98581.38;4993113;28;20423;-76
2020/12/08 08:43:19;;;;;;;19.95;14.27;;;;;;;21.82;32.90;98568.16;4992632;28;20073;-74
2020/12/08 08:45:44;;;;;;;23.83;15.00;;;;;;;21.53;33.56;98567.91;4992620;28;20503;-78
2020/12/08 08:48:10;;;;;;;18.73;14.52;;;;;;;21.24;33.92;98573.78;4996511;28;20038;-75
2020/12/08 08:50:35;;;;;;;20.85;13.68;;;;;;;20.99;34.19;98580.28;5002201;28;20050;-73
2020/12/08 08:53:01;;;;;;;18.88;12.98;;;;;;;20.79;34.58;98580.41;4992981;28;20041;-76
2020/12/08 08:55:26;;;;;;;19.00;13.02;;;;;;;20.66;34.92;98581.00;4992563;28;20066;-73
2020/12/08 08:57:52;;;;;;;20.45;12.75;;;;;;;20.59;35.01;98581.38;4996717;28;20037;-75
2020/12/08 09:00:17;;;;;;;17.27;11.98;;;;;;;20.51;34.83;98584.38;4994921;28;20037;-76
2020/12/08 09:02:42;;;;;;;19.35;12.27;;;;;;;20.48;35.13;98593.28;4992585;28;20080;-73
2020/12/08 09:05:08;;;;;;;16.63;11.60;;;;;;;20.46;35.14;98586.38;4992622;28;20043;-75
2020/12/08 09:07:33;;;;;;;16.40;12.45;;;;;;;20.44;35.19;98594.34;4992304;28;20038;-74
2020/12/08 09:10:00;;;;;;;17.05;12.07;;;;;;;20.45;34.92;98595.22;4992610;28;20038;-74
2020/12/08 09:12:26;;;;;;;15.13;11.02;;;;;;;20.46;34.99;98596.91;4991998;28;20503;-73
2020/12/08 09:14:55;;;;;;;14.90;10.57;;;;;;;20.47;35.16;98594.19;4992601;28;20104;-75
2020/12/08 09:17:20;;;;;;;18.75;11.05;;;;;;;20.46;34.97;98597.75;4992533;28;20038;-73
2020/12/08 09:19:46;;;;;;;15.45;10.63;;;;;;;20.47;35.05;98596.81;4992165;28;20057;-73
2020/12/08 09:22:11;;;;;;;15.82;10.13;;;;;;;20.47;35.06;98598.63;4992282;28;20069;-73
2020/12/08 09:24:37;;;;;;;14.40;9.85;;;;;;;20.47;35.16;98596.81;4992301;28;20478;-73
2020/12/08 09:27:06;;;;;;;17.55;10.63;;;;;;;20.52;35.01;98604.50;4991877;28;20061;-75
2020/12/08 09:29:33;;;;;;;14.50;9.95;;;;;;;20.51;34.85;98595.75;4992266;28;20062;-73
2020/12/08 09:31:59;;;;;;;17.08;9.63;;;;;;;20.54;35.08;98592.13;5007829;28;20129;-75
2020/12/08 09:34:26;;;;;;;13.13;9.10;;;;;;;20.55;35.02;98601.72;5011261;28;20088;-75
2020/12/08 09:36:54;;;;;;;15.23;8.88;;;;;;;20.56;35.19;98602.56;5001593;28;20153;-75
2020/12/08 09:39:20;;;;;;;13.25;8.73;;;;;;;20.57;35.29;98599.00;4991853;28;20034;-75
2020/12/08 09:41:46;;;;;;;13.43;8.60;;;;;;;20.58;35.07;98604.22;4991454;28;20030;-73
2020/12/08 09:44:11;;;;;;;12.60;8.57;;;;;;;20.57;35.08;98609.53;4991972;28;20117;-74
2020/12/08 09:46:40;;;;;;;10.90;8.40;;;;;;;20.57;35.22;98606.91;4991928;28;20034;-72
2020/12/08 09:49:06;;;;;;;12.32;8.57;;;;;;;20.57;35.06;98602.50;4991584;28;20038;-74
2020/12/08 09:51:32;;;;;;;13.95;8.63;;;;;;;20.57;35.08;98610.41;4991696;28;20495;-73
2020/12/08 09:53:58;;;;;;;14.00;8.45;;;;;;;20.57;35.03;98602.50;4991822;28;20042;-73
2020/12/08 09:56:24;;;;;;;10.32;7.45;;;;;;;20.58;35.18;98608.59;4991360;28;20034;-76
2020/12/08 09:58:51;;;;;;;11.27;7.28;;;;;;;20.59;35.05;98602.41;4998304;28;20509;-75
2020/12/08 10:01:32;;;;;;;13.55;7.45;;;;;;;20.57;35.13;98605.13;4990188;28;20046;-73
2020/12/08 10:03:59;;;;;;;12.00;8.45;;;;;;;20.57;35.19;98613.03;5000496;28;20128;-73
2020/12/08 10:06:24;;;;;;;11.07;7.95;;;;;;;20.60;34.99;98607.63;4991267;28;20440;-74
2020/12/08 10:08:54;;;;;;;9.68;6.70;;;;;;;20.60;35.11;98610.25;4991351;28;20133;-75
2020/12/08 10:11:19;;;;;;;8.75;6.43;;;;;;;20.66;35.09;98615.22;4991118;28;20518;-73
2020/12/08 10:13:45;;;;;;;9.45;6.85;;;;;;;20.72;34.96;98615.84;4991580;28;20042;-74
2020/12/08 10:16:10;;;;;;;11.23;6.65;;;;;;;20.75;34.97;98613.06;4991267;28;20376;-74
2020/12/08 10:18:36;;;;;;;9.27;6.38;;;;;;;20.77;35.05;98609.47;4991089;28;20038;-72
2020/12/08 10:21:02;;;;;;;10.48;6.47;;;;;;;20.78;35.12;98616.44;4991310;28;20061;-74
2020/12/08 10:23:28;;;;;;;10.27;6.80;;;;;;;20.81;34.65;98616.28;5006491;28;20053;-75
2020/12/08 10:25:54;;;;;;;10.40;6.10;;;;;;;20.77;34.85;98613.88;4991165;28;20041;-74
2020/12/08 10:28:19;;;;;;;8.95;6.30;;;;;;;20.73;35.07;98615.75;4991027;28;20057;-75
2020/12/08 10:30:44;;;;;;;8.93;6.32;;;;;;;20.71;34.96;98609.72;4997417;28;20434;-74
2020/12/08 10:33:10;;;;;;;8.73;6.05;;;;;;;20.71;35.09;98622.03;5009026;28;20038;-75
2020/12/08 10:35:35;;;;;;;8.43;6.30;;;;;;;20.68;35.17;98609.88;5010672;28;20438;-73
2020/12/08 10:38:01;;;;;;;9.07;5.80;;;;;;;20.67;35.17;98613.44;4990942;28;20669;-73
2020/12/08 10:40:26;;;;;;;7.95;5.72;;;;;;;20.66;35.11;98614.38;4990721;28;20072;-73
2020/12/08 10:42:52;;;;;;;8.32;5.72;;;;;;;20.65;35.03;98613.50;4990429;28;20039;-75
2020/12/08 10:45:17;;;;;;;8.48;5.13;;;;;;;20.67;34.97;98610.81;4989064;28;20059;-75
2020/12/08 10:47:43;;;;;;;7.25;5.15;;;;;;;20.65;34.99;98610.03;4990600;28;20039;-74
2020/12/08 10:50:08;;;;;;;7.40;5.43;;;;;;;20.65;35.20;98602.13;4991047;28;20535;-75
2020/12/08 10:52:34;;;;;;;6.93;4.50;;;;;;;20.64;34.99;98606.53;4990733;28;20042;-75
2020/12/08 10:54:59;;;;;;;6.80;4.82;;;;;;;20.66;35.24;98615.22;4990403;28;20537;-72
2020/12/08 10:57:25;;;;;;;8.30;4.82;;;;;;;20.64;35.09;98606.53;4992269;28;20034;-73
2020/12/08 10:59:51;;;;;;;7.70;4.47;;;;;;;20.63;35.03;98614.50;5006945;28;20034;-74
2020/12/08 11:02:16;;;;;;;9.98;4.38;;;;;;;20.65;34.95;98602.13;5010283;28;20037;-76
2020/12/08 11:04:41;;;;;;;6.38;4.88;;;;;;;20.63;35.11;98599.56;5010010;28;20042;-75
2020/12/08 11:07:07;;;;;;;9.00;4.90;;;;;;;20.63;35.56;98601.34;5010047;28;20065;-75
2020/12/08 11:09:32;;;;;;;8.20;4.43;;;;;;;20.63;35.23;98603.97;5009536;28;20026;-74
2020/12/08 11:11:58;;;;;;;10.20;5.00;;;;;;;20.63;35.00;98612.72;5010139;28;20727;-75
2020/12/08 11:14:24;;;;;;;8.65;4.43;;;;;;;20.64;34.90;98609.16;5010205;28;20034;-74
2020/12/08 11:16:49;;;;;;;6.32;4.65;;;;;;;20.64;35.05;98609.16;5009740;28;20034;-73
2020/12/08 11:19:15;;;;;;;5.68;4.50;;;;;;;20.65;34.91;98608.25;5009781;28;20038;-75
2020/12/08 11:21:41;;;;;;;6.18;4.30;;;;;;;20.67;35.10;98610.81;5008691;28;20034;-72
2020/12/08 11:24:11;;;;;;;6.22;4.10;;;;;;;20.64;34.96;98603.06;5009771;28;20041;-74
2020/12/08 11:26:36;;;;;;;6.18;3.97;;;;;;;20.65;35.09;98612.66;5010117;28;20045;-73